Time;durP1;ratioP1;P1;durP2;ratioP2;P2;SDS_P1;SDS_P2;PMS_P1;PMS_P2;Temp;Humidity;BMP_temperature;BMP_pressure;BME280_temperature;BME280_humidity;BME280_pressure;Samples;Min_cycle;Max_cycle;Signal;HPM_P1;HPM_P2
2021/11/22 00:02:33;;;;;;;17.97;12.37;;;;;;;3.96;78.82;97293.94;6123086;29;20201;-69
2021/11/22 00:05:35;;;;;;;17.83;12.13;;;;;;;3.96;78.71;97286.97;6099307;29;20223;-70
2021/11/22 00:08:38;;;;;;;21.97;13.77;;;;;;;3.98;78.75;97289.47;6119864;29;20218;-69
2021/11/22 00:11:40;;;;;;;21.43;13.53;;;;;;;3.97;79.27;97293.88;6123358;29;20203;-69
2021/11/22 00:14:43;;;;;;;17.50;12.40;;;;;;;3.97;79.10;97304.31;6122549;29;20203;-69
2021/11/22 00:17:46;;;;;;;20.20;12.63;;;;;;;3.98;79.52;97299.94;6123123;29;20202;-70
2021/11/22 00:20:49;;;;;;;18.20;12.30;;;;;;;3.96;78.85;97297.41;6122474;29;20202;-70
2021/11/22 00:23:51;;;;;;;20.00;11.90;;;;;;;3.97;78.64;97306.91;6122328;29;20231;-69
2021/11/22 00:26:53;;;;;;;17.57;11.60;;;;;;;3.97;79.43;97309.53;6122227;29;20201;-69
2021/11/22 00:29:58;;;;;;;16.90;11.43;;;;;;;3.98;78.74;97306.00;6122433;29;20283;-69
2021/11/22 00:33:23;;;;;;;19.50;12.90;;;;;;;3.96;79.25;97310.47;6120108;29;20683;-69
2021/11/22 00:36:44;;;;;;;19.10;12.27;;;;;;;3.96;79.32;97307.84;6122554;29;20225;-69
2021/11/22 00:39:47;;;;;;;20.93;13.03;;;;;;;3.97;79.30;97306.06;6122786;29;20617;-69
2021/11/22 00:42:50;;;;;;;20.77;13.17;;;;;;;3.97;79.31;97313.91;6122286;29;20201;-69
2021/11/22 00:45:53;;;;;;;16.17;11.70;;;;;;;3.98;79.87;97312.97;6122096;29;20195;-71
2021/11/22 00:48:56;;;;;;;23.03;13.73;;;;;;;3.98;79.82;97315.59;6122590;29;20217;-70
2021/11/22 00:51:59;;;;;;;20.57;12.87;;;;;;;3.97;79.18;97319.13;6121983;29;20264;-69
2021/11/22 00:55:01;;;;;;;14.97;10.37;;;;;;;3.97;79.31;97325.19;6122460;29;20199;-69
2021/11/22 00:58:03;;;;;;;19.27;13.30;;;;;;;3.99;80.20;97320.69;6122393;29;20196;-69
2021/11/22 01:01:05;;;;;;;22.50;13.73;;;;;;;3.97;79.90;97311.28;6122237;29;20610;-69
2021/11/22 01:04:08;;;;;;;21.23;14.03;;;;;;;3.97;79.81;97316.50;6123936;29;20569;-70
2021/11/22 01:07:10;;;;;;;20.80;13.70;;;;;;;3.95;80.14;97324.44;6126655;29;20747;-69
2021/11/22 01:10:15;;;;;;;24.23;14.27;;;;;;;3.95;80.15;97320.97;6126573;29;20214;-70
2021/11/22 01:13:18;;;;;;;21.47;13.70;;;;;;;3.94;80.15;97319.31;6126790;29;20194;-70
2021/11/22 01:16:20;;;;;;;20.33;13.50;;;;;;;3.94;80.15;97317.53;6126766;29;20714;-69
2021/11/22 01:19:23;;;;;;;20.80;13.73;;;;;;;3.95;80.01;97326.19;6126643;29;20212;-69
2021/11/22 01:22:25;;;;;;;22.07;13.47;;;;;;;3.94;80.26;97321.91;6125772;29;20207;-70
2021/11/22 01:25:28;;;;;;;21.33;12.73;;;;;;;3.94;79.96;97325.38;6126763;29;20198;-69
2021/11/22 01:28:31;;;;;;;21.40;14.10;;;;;;;3.93;80.36;97333.28;6126084;29;20222;-69
2021/11/22 01:31:33;;;;;;;25.90;15.13;;;;;;;3.91;80.29;97343.81;6125543;29;20243;-70
2021/11/22 01:34:36;;;;;;;23.20;14.70;;;;;;;3.90;79.96;97347.34;6126426;29;20557;-69
2021/11/22 01:37:38;;;;;;;24.23;15.07;;;;;;;3.88;80.15;97348.38;6125720;29;20620;-69
2021/11/22 01:40:42;;;;;;;21.50;13.70;;;;;;;3.87;80.47;97342.31;6125964;29;20975;-70
2021/11/22 01:43:44;;;;;;;23.37;14.13;;;;;;;3.87;79.61;97347.53;6125780;29;20206;-70
2021/11/22 01:46:48;;;;;;;25.07;14.67;;;;;;;3.89;80.08;97342.25;6126077;29;20209;-70
2021/11/22 01:49:51;;;;;;;23.13;14.40;;;;;;;3.90;79.68;97349.97;6125647;29;20208;-70
2021/11/22 01:52:55;;;;;;;21.07;14.13;;;;;;;3.89;80.10;97348.31;6125468;29;20202;-69
2021/11/22 01:55:57;;;;;;;23.93;14.67;;;;;;;3.90;79.69;97349.97;6124664;29;20197;-69
2021/11/22 01:58:59;;;;;;;22.40;13.93;;;;;;;3.90;80.25;97352.56;6125217;29;20233;-69
2021/11/22 02:02:03;;;;;;;18.67;12.73;;;;;;;3.89;79.31;97344.84;6124271;29;20198;-69
2021/11/22 02:05:06;;;;;;;24.37;13.77;;;;;;;3.88;79.94;97349.22;6125000;29;20231;-70
2021/11/22 02:08:11;;;;;;;24.17;14.47;;;;;;;3.88;79.92;97349.22;6125440;29;20198;-69
2021/11/22 02:11:13;;;;;;;24.50;15.17;;;;;;;3.88;79.75;97346.63;6125409;29;20198;-69
2021/11/22 02:14:15;;;;;;;20.13;12.93;;;;;;;3.89;79.36;97343.09;6123610;29;20930;-70
2021/11/22 02:17:17;;;;;;;20.90;14.10;;;;;;;3.88;79.34;97338.78;6125162;29;20191;-70
2021/11/22 02:20:26;;;;;;;18.57;12.03;;;;;;;3.91;79.79;97348.19;6124663;29;20196;-69
2021/11/22 02:23:28;;;;;;;20.23;12.90;;;;;;;3.91;79.39;97345.56;6125688;29;20667;-69
2021/11/22 02:26:30;;;;;;;21.13;13.83;;;;;;;3.91;79.72;97340.34;6123665;29;20681;-70
2021/11/22 02:29:32;;;;;;;15.17;11.27;;;;;;;3.93;79.89;97346.34;6124740;29;20227;-69
2021/11/22 02:32:40;;;;;;;21.13;13.87;;;;;;;3.92;79.29;97362.94;6123558;29;20310;-69
2021/11/22 02:35:46;;;;;;;25.60;15.97;;;;;;;3.87;78.81;97365.81;6124214;29;20670;-70
2021/11/22 02:38:59;;;;;;;22.03;15.73;;;;;;;3.82;79.42;97367.84;6123625;29;20214;-70
2021/11/22 02:42:01;;;;;;;24.07;15.80;;;;;;;3.80;79.60;97366.25;6124021;29;20209;-69
2021/11/22 02:45:04;;;;;;;27.03;18.63;;;;;;;3.78;78.84;97374.19;6123452;29;20209;-70
2021/11/22 02:48:06;;;;;;;25.40;16.00;;;;;;;3.76;79.13;97381.25;6124460;29;20276;-69
2021/11/22 02:51:08;;;;;;;25.13;18.37;;;;;;;3.75;78.96;97382.19;6122515;29;20595;-69
2021/11/22 02:54:11;;;;;;;25.57;17.87;;;;;;;3.71;78.17;97389.34;6124727;29;20613;-70
2021/11/22 02:57:13;;;;;;;24.00;17.20;;;;;;;3.72;78.71;97395.41;6123803;29;20700;-70
2021/11/22 03:00:20;;;;;;;28.23;17.17;;;;;;;3.72;78.81;97395.41;6124249;29;20206;-69
2021/11/22 03:03:30;;;;;;;24.60;16.43;;;;;;;3.72;78.43;97395.41;6124220;29;20205;-69
2021/11/22 03:06:32;;;;;;;24.40;16.93;;;;;;;3.70;78.07;97397.25;6123952;29;20205;-70
2021/11/22 03:09:36;;;;;;;25.13;16.47;;;;;;;3.69;78.45;97393.81;6124109;29;20282;-70
2021/11/22 03:12:38;;;;;;;28.77;19.20;;;;;;;3.68;78.46;97391.31;6123474;29;20202;-69
2021/11/22 03:15:40;;;;;;;26.63;16.83;;;;;;;3.67;78.39;97398.28;6123089;29;20212;-69
2021/11/22 03:18:43;;;;;;;24.03;16.23;;;;;;;3.68;78.76;97399.13;6123695;29;20206;-70
2021/11/22 03:21:45;;;;;;;26.40;17.47;;;;;;;3.68;78.63;97389.53;6123537;29;20212;-70
2021/11/22 03:24:47;;;;;;;24.93;16.60;;;;;;;3.67;77.98;97390.47;6124278;29;20602;-70
2021/11/22 03:27:50;;;;;;;23.63;16.73;;;;;;;3.67;78.45;97397.44;6122598;29;20601;-69
2021/11/22 03:30:52;;;;;;;26.10;17.27;;;;;;;3.64;78.44;97397.63;6123200;29;20248;-70
2021/11/22 03:33:55;;;;;;;28.37;19.50;;;;;;;3.62;78.49;97402.06;6123417;29;20198;-69
2021/11/22 03:37:03;;;;;;;26.40;18.40;;;;;;;3.58;78.44;97409.25;6123416;29;20201;-69
2021/11/22 03:40:07;;;;;;;27.33;18.33;;;;;;;3.58;77.77;97419.69;6123403;29;20208;-70
2021/11/22 03:46:13;;;;;;;26.00;18.50;;;;;;;3.58;77.96;97422.31;6123573;29;20195;-70
2021/11/22 03:49:17;;;;;;;26.70;17.83;;;;;;;3.58;77.58;97422.31;6122647;29;20228;-69
2021/11/22 03:52:21;;;;;;;25.63;17.00;;;;;;;3.58;77.86;97414.47;6123213;29;20204;-70
2021/11/22 03:55:24;;;;;;;24.20;16.33;;;;;;;3.61;77.51;97427.31;6123282;29;20207;-70
2021/11/22 03:58:26;;;;;;;23.67;15.40;;;;;;;3.62;77.65;97426.41;6121482;29;20209;-69
2021/11/22 04:01:28;;;;;;;25.07;16.07;;;;;;;3.63;77.52;97422.03;6122835;29;20197;-70
2021/11/22 04:04:31;;;;;;;24.07;14.77;;;;;;;3.66;77.31;97414.88;6122808;29;20284;-70
2021/11/22 04:07:33;;;;;;;24.50;15.13;;;;;;;3.68;77.25;97428.69;6121951;29;20189;-69
2021/11/22 04:10:36;;;;;;;20.07;13.63;;;;;;;3.68;77.08;97430.44;6121053;29;20243;-69
2021/11/22 04:13:39;;;;;;;22.07;15.03;;;;;;;3.68;77.23;97425.22;6123560;29;20320;-70
2021/11/22 04:16:41;;;;;;;23.53;15.43;;;;;;;3.69;77.33;97438.16;6123258;29;20208;-70
2021/11/22 04:19:44;;;;;;;22.03;14.20;;;;;;;3.69;77.28;97437.34;6121244;29;20579;-69
2021/11/22 04:22:47;;;;;;;24.03;15.50;;;;;;;3.68;76.70;97436.50;6122645;29;20206;-72
2021/11/22 04:25:49;;;;;;;25.13;16.30;;;;;;;3.68;76.90;97436.50;6122962;29;20204;-69
2021/11/22 04:28:51;;;;;;;18.57;13.93;;;;;;;3.69;76.76;97446.00;6122761;29;20204;-69
2021/11/22 04:31:53;;;;;;;22.90;15.10;;;;;;;3.69;77.04;97446.00;6122443;29;20240;-69
2021/11/22 04:34:55;;;;;;;23.07;14.60;;;;;;;3.69;76.76;97446.00;6122489;29;20212;-69
2021/11/22 04:37:58;;;;;;;21.30;13.67;;;;;;;3.69;77.01;97448.59;6123662;29;20189;-69
2021/11/22 04:41:00;;;;;;;21.20;14.07;;;;;;;3.69;76.72;97451.22;6126612;29;20205;-70
2021/11/22 04:44:03;;;;;;;21.03;14.23;;;;;;;3.69;76.42;97453.81;6126382;29;20201;-70
2021/11/22 04:47:09;;;;;;;22.97;14.50;;;;;;;3.70;76.31;97458.13;6126301;29;20198;-70
2021/11/22 04:50:13;;;;;;;20.87;14.00;;;;;;;3.71;76.26;97446.75;6126534;29;20250;-70
2021/11/22 04:53:15;;;;;;;19.07;13.50;;;;;;;3.74;76.81;97452.72;6125893;29;20204;-69
2021/11/22 04:56:17;;;;;;;19.90;13.83;;;;;;;3.76;76.48;97461.31;6127088;29;20225;-69
2021/11/22 04:59:20;;;;;;;18.93;13.30;;;;;;;3.77;76.53;97465.63;6125482;29;20188;-71
2021/11/22 05:02:22;;;;;;;19.73;13.27;;;;;;;3.78;76.55;97456.88;6125190;29;20221;-70
2021/11/22 05:05:24;;;;;;;19.63;13.10;;;;;;;3.79;76.57;97461.16;6127232;29;20191;-70
2021/11/22 05:08:26;;;;;;;24.27;15.53;;;;;;;3.78;76.37;97467.31;6127010;29;20250;-70
2021/11/22 05:11:29;;;;;;;22.80;15.10;;;;;;;3.78;76.00;97464.69;6125956;29;20282;-70
2021/11/22 05:14:31;;;;;;;22.93;14.17;;;;;;;3.76;76.00;97471.75;6126911;29;20201;-69
2021/11/22 05:17:36;;;;;;;22.97;14.17;;;;;;;3.75;76.42;97470.91;6125099;29;20207;-69
2021/11/22 05:20:41;;;;;;;24.10;15.00;;;;;;;3.74;76.33;97477.06;6125128;29;20198;-69
2021/11/22 05:23:44;;;;;;;22.53;14.77;;;;;;;3.73;76.58;97483.19;6126679;29;20559;-69
2021/11/22 05:26:46;;;;;;;21.70;14.77;;;;;;;3.74;76.72;97486.66;6140871;29;20201;-69
2021/11/22 05:29:49;;;;;;;21.77;14.43;;;;;;;3.73;76.39;97485.81;6125941;29;20371;-70
2021/11/22 05:32:52;;;;;;;23.70;14.97;;;;;;;3.75;76.77;97483.97;6125743;29;20272;-70
2021/11/22 05:35:54;;;;;;;23.33;14.73;;;;;;;3.75;76.38;97489.19;6126528;29;20205;-71
2021/11/22 05:38:56;;;;;;;24.00;15.83;;;;;;;3.76;76.11;97490.03;6126242;29;20212;-70
2021/11/22 05:41:59;;;;;;;23.23;14.10;;;;;;;3.77;75.87;97492.56;6124094;29;20201;-70
2021/11/22 05:45:01;;;;;;;21.47;14.57;;;;;;;3.79;75.83;97492.47;6126411;29;20278;-69
2021/11/22 05:48:07;;;;;;;20.30;13.43;;;;;;;3.80;75.68;97494.97;6124500;29;20205;-69
2021/11/22 05:51:11;;;;;;;20.87;13.57;;;;;;;3.80;75.48;97491.53;6124916;29;20214;-70
2021/11/22 05:54:14;;;;;;;22.03;13.63;;;;;;;3.81;75.53;97504.50;6125625;29;20280;-71
2021/11/22 05:57:16;;;;;;;20.77;13.33;;;;;;;3.83;75.37;97504.41;6124650;29;20203;-70
2021/11/22 06:00:19;;;;;;;23.73;14.67;;;;;;;3.83;74.91;97505.25;6124160;29;20198;-69
2021/11/22 06:03:21;;;;;;;19.07;13.13;;;;;;;3.83;74.74;97510.47;6124023;29;20202;-70
2021/11/22 06:06:23;;;;;;;18.20;11.87;;;;;;;3.86;75.08;97519.91;6125784;29;20205;-69
2021/11/22 06:09:25;;;;;;;18.97;13.07;;;;;;;3.87;75.20;97508.53;6123552;29;20230;-70
2021/11/22 06:12:27;;;;;;;19.23;11.97;;;;;;;3.88;74.68;97518.06;6125028;29;20536;-70
2021/11/22 06:15:30;;;;;;;18.90;11.80;;;;;;;3.90;74.74;97521.41;6125453;29;20322;-70
2021/11/22 06:18:32;;;;;;;19.07;11.90;;;;;;;3.90;74.59;97530.06;6125187;29;20220;-70
2021/11/22 06:21:34;;;;;;;19.30;12.43;;;;;;;3.89;75.33;97531.03;6123524;29;20218;-69
2021/11/22 06:24:36;;;;;;;18.47;12.30;;;;;;;3.90;75.17;97532.69;6125449;29;20203;-70
2021/11/22 06:27:38;;;;;;;18.33;12.07;;;;;;;3.89;75.58;97541.47;6125142;29;20572;-69
2021/11/22 06:30:40;;;;;;;21.70;13.33;;;;;;;3.89;75.05;97546.69;6124491;29;20258;-69
2021/11/22 06:33:43;;;;;;;20.23;12.73;;;;;;;3.91;75.54;97554.41;6123276;29;20202;-70
2021/11/22 06:36:45;;;;;;;21.27;13.53;;;;;;;3.92;74.48;97549.09;6125161;29;20203;-69
2021/11/22 06:39:48;;;;;;;19.57;12.70;;;;;;;3.95;74.50;97550.72;6124828;29;20210;-70
2021/11/22 06:42:50;;;;;;;20.07;13.03;;;;;;;3.96;74.92;97557.63;6124399;29;20210;-70
2021/11/22 06:45:52;;;;;;;17.60;12.50;;;;;;;3.98;74.52;97561.00;6124962;29;20200;-70
2021/11/22 06:48:54;;;;;;;21.43;12.83;;;;;;;4.00;74.28;97569.56;6124565;29;20686;-70
2021/11/22 06:51:57;;;;;;;21.03;13.90;;;;;;;4.02;74.21;97570.31;6124151;29;20223;-70
2021/11/22 06:54:59;;;;;;;19.50;13.53;;;;;;;4.03;74.47;97578.06;6122541;29;20205;-70
2021/11/22 06:58:02;;;;;;;20.00;13.37;;;;;;;4.04;74.69;97582.38;6124132;29;20640;-69
2021/11/22 07:01:04;;;;;;;22.47;13.53;;;;;;;4.06;74.41;97571.84;6122019;29;20640;-70
2021/11/22 07:04:06;;;;;;;19.33;12.90;;;;;;;4.09;74.76;97580.34;6124120;29;20286;-70
2021/11/22 07:07:08;;;;;;;19.83;13.37;;;;;;;4.13;74.31;97582.78;6124295;29;20676;-70
2021/11/22 07:10:11;;;;;;;19.07;13.03;;;;;;;4.16;74.27;97582.63;6122846;29;20209;-70
2021/11/22 07:13:13;;;;;;;21.90;13.63;;;;;;;4.20;74.71;97587.56;6106621;29;20589;-70
2021/11/22 07:16:16;;;;;;;19.10;12.80;;;;;;;4.21;74.19;97588.41;6123609;29;20277;-70
2021/11/22 07:19:19;;;;;;;21.47;14.37;;;;;;;4.23;74.80;97592.63;6123538;29;20203;-70
2021/11/22 07:22:21;;;;;;;20.27;13.37;;;;;;;4.24;74.35;97594.31;6122927;29;20213;-70
2021/11/22 07:25:23;;;;;;;22.17;14.77;;;;;;;4.24;74.51;97596.09;6121538;29;20607;-70
2021/11/22 07:28:26;;;;;;;20.23;13.97;;;;;;;4.24;73.91;97596.09;6123741;29;20206;-70
2021/11/22 07:31:28;;;;;;;20.60;14.50;;;;;;;4.22;74.25;97604.00;6121841;29;20706;-69
2021/11/22 07:34:31;;;;;;;20.37;13.40;;;;;;;4.24;73.84;97615.22;6123196;29;20203;-69
2021/11/22 07:37:33;;;;;;;19.73;13.87;;;;;;;4.26;74.37;97618.59;6123007;29;20195;-70
2021/11/22 07:40:36;;;;;;;19.77;13.10;;;;;;;4.27;74.68;97612.44;6121147;29;20199;-70
2021/11/22 07:43:38;;;;;;;21.70;14.17;;;;;;;4.29;73.86;97620.19;6122965;29;20190;-70
2021/11/22 07:46:40;;;;;;;21.27;13.70;;;;;;;4.30;73.91;97630.53;6116011;29;20243;-70
2021/11/22 07:49:42;;;;;;;22.57;13.90;;;;;;;4.30;74.30;97625.31;6117637;29;20215;-69
2021/11/22 07:52:45;;;;;;;20.40;13.83;;;;;;;4.31;73.76;97629.59;6105199;29;20210;-69
2021/11/22 07:55:47;;;;;;;21.80;15.23;;;;;;;4.33;73.84;97638.19;6122166;29;20655;-69
2021/11/22 07:58:50;;;;;;;22.20;14.30;;;;;;;4.34;74.04;97642.50;6121742;29;20204;-69
2021/11/22 08:01:52;;;;;;;20.37;15.53;;;;;;;4.36;73.79;97645.03;6121741;29;20202;-70
2021/11/22 08:04:54;;;;;;;20.60;14.27;;;;;;;4.33;73.44;97648.66;6121706;29;20203;-70
2021/11/22 08:07:56;;;;;;;22.70;15.13;;;;;;;4.34;74.12;97647.72;6121028;29;20203;-70
2021/11/22 08:11:17;;;;;;;19.40;14.30;;;;;;;4.37;74.40;97658.00;6105026;29;20365;-70
2021/11/22 08:14:19;;;;;;;22.00;15.17;;;;;;;4.38;73.91;97653.63;6122579;29;20214;-70
2021/11/22 08:17:40;;;;;;;21.13;14.13;;;;;;;4.40;73.48;97654.38;6122191;29;20565;-69
2021/11/22 08:20:42;;;;;;;20.80;14.23;;;;;;;4.40;73.60;97664.81;6122351;29;20202;-70
2021/11/22 08:23:44;;;;;;;20.70;14.83;;;;;;;4.43;74.70;97673.34;6120754;29;20326;-70
2021/11/22 08:26:47;;;;;;;20.57;14.67;;;;;;;4.47;74.10;97675.78;6122875;29;20203;-70
2021/11/22 08:29:52;;;;;;;20.43;14.20;;;;;;;4.50;74.34;97676.44;6120499;29;20249;-69
2021/11/22 08:32:56;;;;;;;22.93;14.97;;;;;;;4.54;74.33;97682.34;6121912;29;20864;-70
2021/11/22 08:35:58;;;;;;;22.03;15.00;;;;;;;4.58;73.61;97681.25;6122611;29;20192;-69
2021/11/22 08:39:01;;;;;;;20.70;15.03;;;;;;;4.58;73.56;97687.34;6136545;29;20694;-69
2021/11/22 08:42:03;;;;;;;21.70;15.43;;;;;;;4.56;73.82;97681.34;6121753;29;20569;-69
2021/11/22 08:45:07;;;;;;;24.43;15.47;;;;;;;4.57;73.63;97693.47;6121930;29;20630;-69
2021/11/22 08:48:09;;;;;;;21.33;15.03;;;;;;;4.58;74.15;97697.78;6122360;29;20247;-70
2021/11/22 08:51:11;;;;;;;22.93;14.60;;;;;;;4.59;73.90;97693.41;6121679;29;20611;-69
2021/11/22 08:54:13;;;;;;;24.77;16.27;;;;;;;4.61;74.45;97684.53;6120676;29;20199;-69
2021/11/22 08:57:17;;;;;;;24.50;17.10;;;;;;;4.59;73.88;97698.63;6120789;29;20203;-69
2021/11/22 09:00:27;;;;;;;22.10;15.40;;;;;;;4.60;74.03;97688.06;6121654;29;20310;-69
2021/11/22 09:03:29;;;;;;;25.23;16.50;;;;;;;4.64;74.61;97705.28;6121981;29;20577;-70
2021/11/22 09:06:34;;;;;;;23.07;15.70;;;;;;;4.64;74.59;97712.25;6122015;29;20206;-70
2021/11/22 09:09:36;;;;;;;29.90;16.60;;;;;;;4.63;74.59;97707.97;6122278;29;20677;-70
2021/11/22 09:12:38;;;;;;;23.60;16.57;;;;;;;4.61;74.62;97713.28;6121512;29;20230;-69
2021/11/22 09:15:42;;;;;;;23.00;15.77;;;;;;;4.64;74.69;97717.50;6121541;29;20269;-69
2021/11/22 09:18:44;;;;;;;25.97;17.20;;;;;;;4.69;74.92;97718.91;6122109;29;20245;-69
2021/11/22 09:21:46;;;;;;;27.27;17.20;;;;;;;4.67;74.88;97714.72;6120982;29;20198;-70
2021/11/22 09:24:49;;;;;;;24.87;16.57;;;;;;;4.65;74.69;97720.03;6123711;29;20571;-69
2021/11/22 09:27:51;;;;;;;26.90;16.60;;;;;;;4.67;74.58;97718.19;6126132;29;20200;-69
2021/11/22 09:30:53;;;;;;;23.03;16.17;;;;;;;4.68;75.20;97721.63;6125183;29;20258;-69
2021/11/22 09:33:55;;;;;;;27.77;16.63;;;;;;;4.68;75.49;97711.19;6125880;29;20195;-70
2021/11/22 09:36:58;;;;;;;23.97;16.23;;;;;;;4.72;74.79;97720.50;6125451;29;20240;-69
2021/11/22 09:40:01;;;;;;;24.80;16.23;;;;;;;4.74;75.03;97709.06;6140461;29;20211;-69
2021/11/22 09:43:05;;;;;;;23.77;16.23;;;;;;;4.80;74.48;97707.84;6123781;29;20202;-69
2021/11/22 09:46:07;;;;;;;25.73;16.97;;;;;;;4.85;74.82;97707.59;6124195;29;21043;-70
2021/11/22 09:49:09;;;;;;;23.67;16.00;;;;;;;4.89;74.57;97707.31;6125623;29;20196;-70
2021/11/22 09:52:11;;;;;;;24.33;16.43;;;;;;;4.91;74.01;97713.31;6124750;29;20724;-70
2021/11/22 09:55:14;;;;;;;23.40;16.23;;;;;;;4.94;74.61;97713.16;6125263;29;20201;-70
2021/11/22 09:58:16;;;;;;;26.10;17.10;;;;;;;4.93;73.90;97711.47;6124197;29;20199;-70
2021/11/22 10:01:21;;;;;;;27.50;17.67;;;;;;;4.89;74.29;97709.13;6124803;29;20198;-69
2021/11/22 10:04:30;;;;;;;25.70;16.80;;;;;;;4.86;74.77;97711.91;6125143;29;20566;-69
2021/11/22 10:07:34;;;;;;;22.70;16.00;;;;;;;4.82;74.83;97714.69;6124850;29;20199;-69
2021/11/22 10:10:58;;;;;;;23.83;16.97;;;;;;;4.83;74.41;97712.91;6124783;29;20581;-69
2021/11/22 10:14:03;;;;;;;24.27;17.00;;;;;;;4.84;75.57;97712.00;6124743;29;20198;-70
2021/11/22 10:17:33;;;;;;;29.43;19.50;;;;;;;4.81;75.88;97712.16;6125296;29;20213;-69
2021/11/22 10:20:35;;;;;;;24.77;16.83;;;;;;;4.86;75.66;97723.22;6123132;29;20198;-69
2021/11/22 10:23:40;;;;;;;28.27;18.67;;;;;;;4.79;75.36;97714.03;6124595;29;20566;-69
2021/11/22 10:26:46;;;;;;;26.70;18.17;;;;;;;4.81;75.58;97718.22;6123765;29;20206;-69
2021/11/22 10:29:48;;;;;;;26.37;17.23;;;;;;;4.86;75.88;97719.75;6124099;29;20600;-70
2021/11/22 10:32:54;;;;;;;27.80;17.63;;;;;;;4.89;75.15;97722.19;6123984;29;20206;-70
2021/11/22 10:36:00;;;;;;;29.73;18.47;;;;;;;4.80;75.35;97724.38;6124460;29;20243;-69
2021/11/22 10:39:04;;;;;;;30.20;19.23;;;;;;;4.82;75.60;97729.53;6124962;29;20176;-70
2021/11/22 10:42:27;;;;;;;30.80;19.40;;;;;;;4.81;75.51;97731.28;6124227;29;21027;-70
2021/11/22 10:45:47;;;;;;;27.17;18.17;;;;;;;4.85;75.41;97726.75;6122387;29;20209;-69
2021/11/22 10:48:51;;;;;;;25.23;16.97;;;;;;;4.85;75.37;97723.28;6124848;29;20203;-70
2021/11/22 10:52:07;;;;;;;29.47;18.30;;;;;;;4.88;75.57;97736.19;6123254;29;20219;-69
2021/11/22 10:55:11;;;;;;;25.17;17.37;;;;;;;4.85;75.59;97734.59;6122841;29;20196;-69
2021/11/22 10:58:39;;;;;;;28.97;18.37;;;;;;;4.87;75.06;97734.50;6122597;29;20680;-69
2021/11/22 11:01:53;;;;;;;24.80;17.10;;;;;;;4.90;74.94;97732.53;6123558;29;20869;-69
2021/11/22 11:04:55;;;;;;;25.53;17.67;;;;;;;4.92;74.91;97728.06;6123611;29;20622;-70
2021/11/22 11:08:02;;;;;;;27.80;18.13;;;;;;;4.94;74.35;97739.28;6122776;29;20199;-70
2021/11/22 11:11:25;;;;;;;28.90;18.07;;;;;;;4.99;74.26;97746.91;6123235;29;20714;-70
2021/11/22 11:14:30;;;;;;;27.03;17.77;;;;;;;4.93;74.86;97753.31;6123154;29;20618;-69
2021/11/22 11:17:35;;;;;;;24.47;16.87;;;;;;;4.97;75.15;97743.53;6123625;29;20186;-69
2021/11/22 11:20:48;;;;;;;26.63;17.40;;;;;;;4.99;74.55;97745.09;6121857;29;20780;-70
2021/11/22 11:23:50;;;;;;;25.53;17.10;;;;;;;4.98;75.08;97747.81;6099046;29;20637;-70
2021/11/22 11:26:52;;;;;;;27.63;17.50;;;;;;;4.95;74.32;97758.44;6119022;29;20339;-69
2021/11/22 11:29:55;;;;;;;26.50;17.40;;;;;;;4.97;75.43;97754.81;6122574;29;20243;-70
2021/11/22 11:32:57;;;;;;;28.23;17.53;;;;;;;5.04;75.02;97747.47;6121554;29;20218;-70
2021/11/22 11:36:10;;;;;;;23.40;16.50;;;;;;;5.07;75.14;97760.38;6122813;29;20278;-69
2021/11/22 11:39:36;;;;;;;26.00;18.23;;;;;;;5.04;74.61;97753.53;6123237;29;20596;-69
2021/11/22 11:43:20;;;;;;;23.77;16.27;;;;;;;5.07;75.25;97765.59;6122418;29;20613;-69
2021/11/22 11:46:43;;;;;;;26.23;17.43;;;;;;;5.03;74.56;97767.53;6117533;29;20215;-69
2021/11/22 11:49:45;;;;;;;26.50;16.90;;;;;;;5.02;75.24;97763.25;6122594;29;20564;-70
2021/11/22 11:52:58;;;;;;;25.90;17.27;;;;;;;5.02;74.64;97763.25;6121677;29;20241;-70
2021/11/22 11:56:10;;;;;;;26.43;17.67;;;;;;;5.01;75.53;97761.53;6123143;29;20202;-69
2021/11/22 11:59:22;;;;;;;26.50;17.17;;;;;;;4.99;75.21;97768.63;6122417;29;20188;-70
2021/11/22 12:02:30;;;;;;;26.90;16.97;;;;;;;4.99;75.82;97770.44;6122567;29;20176;-69
2021/11/22 12:05:49;;;;;;;27.13;17.33;;;;;;;4.97;75.84;97767.91;6122589;29;20759;-69
2021/11/22 12:08:51;;;;;;;24.40;17.17;;;;;;;4.97;76.10;97765.28;6121535;29;20203;-70
2021/11/22 12:11:53;;;;;;;26.00;17.43;;;;;;;5.00;75.84;97770.31;6121749;29;20222;-69
2021/11/22 12:15:25;;;;;;;23.83;16.03;;;;;;;5.01;75.63;97773.78;6105817;29;20404;-70
2021/11/22 12:18:43;;;;;;;23.40;16.07;;;;;;;4.99;76.33;97776.47;6118971;28;20211;-70
2021/11/22 12:21:45;;;;;;;24.63;16.53;;;;;;;4.96;76.28;97773.22;6121739;29;20199;-69
2021/11/22 12:24:48;;;;;;;24.00;14.93;;;;;;;4.91;77.01;97776.06;6122711;29;20206;-69
2021/11/22 12:28:13;;;;;;;22.23;15.37;;;;;;;4.88;76.49;97780.66;6121948;29;20194;-69
2021/11/22 12:31:23;;;;;;;24.10;15.30;;;;;;;4.87;77.04;97781.56;6121713;29;20326;-69
2021/11/22 12:34:34;;;;;;;20.43;14.30;;;;;;;4.89;76.31;97779.72;6122128;29;20213;-69
2021/11/22 12:37:37;;;;;;;24.30;15.60;;;;;;;4.87;77.42;97782.41;6122316;29;20254;-69
2021/11/22 12:40:50;;;;;;;22.37;15.27;;;;;;;4.89;77.57;97787.56;6122249;29;20666;-70
2021/11/22 12:44:20;;;;;;;20.83;12.87;;;;;;;4.89;77.96;97796.22;6121967;29;20258;-70
2021/11/22 12:47:28;;;;;;;20.67;14.00;;;;;;;4.92;77.69;97797.84;6120396;29;20197;-70
2021/11/22 12:50:32;;;;;;;21.70;14.23;;;;;;;4.95;78.57;97797.69;6121917;29;20187;-69
2021/11/22 12:53:36;;;;;;;19.50;13.43;;;;;;;4.96;77.40;97799.38;6120902;29;20214;-70
2021/11/22 12:56:40;;;;;;;19.43;13.80;;;;;;;4.96;78.10;97797.59;6121554;29;20215;-70
2021/11/22 12:59:42;;;;;;;18.13;12.57;;;;;;;4.97;77.56;97801.91;6122836;29;20199;-70
2021/11/22 13:02:48;;;;;;;19.57;13.27;;;;;;;4.96;78.16;97807.22;6126292;29;20223;-69
2021/11/22 13:06:16;;;;;;;19.57;13.43;;;;;;;4.95;78.81;97810.75;6126095;29;20192;-70
2021/11/22 13:09:38;;;;;;;16.87;12.77;;;;;;;4.96;78.77;97808.06;6126662;29;20254;-70
2021/11/22 13:12:45;;;;;;;20.17;13.23;;;;;;;4.94;79.09;97815.13;6125551;29;20221;-69
2021/11/22 13:15:59;;;;;;;16.70;12.50;;;;;;;4.94;79.17;97809.91;6126643;29;20209;-70
2021/11/22 13:19:07;;;;;;;17.93;12.30;;;;;;;4.92;78.65;97808.28;6125817;29;20222;-69
2021/11/22 13:22:12;;;;;;;19.40;12.43;;;;;;;4.91;79.13;97814.44;6125942;29;20314;-70
2021/11/22 13:25:19;;;;;;;19.33;13.97;;;;;;;4.91;79.74;97812.69;6126188;29;20205;-70
2021/11/22 13:28:29;;;;;;;18.40;12.13;;;;;;;4.91;78.96;97809.22;6125633;29;20199;-69
2021/11/22 13:31:44;;;;;;;19.57;13.03;;;;;;;4.92;80.27;97811.75;6109066;29;20304;-70
2021/11/22 13:34:46;;;;;;;18.00;12.63;;;;;;;4.93;79.92;97820.44;6125708;29;20330;-69
2021/11/22 13:38:12;;;;;;;18.13;12.73;;;;;;;4.94;79.84;97817.75;6125728;29;20684;-69
2021/11/22 13:41:17;;;;;;;18.13;11.83;;;;;;;4.97;80.76;97828.06;6124905;29;20199;-70
2021/11/22 13:44:20;;;;;;;19.10;12.67;;;;;;;4.98;80.52;97837.59;6125945;29;20195;-69
2021/11/22 13:47:25;;;;;;;18.73;12.97;;;;;;;4.96;80.16;97835.97;6124203;29;20200;-69
2021/11/22 13:50:42;;;;;;;18.93;12.63;;;;;;;4.93;81.11;97830.91;6123955;29;20203;-69
2021/11/22 13:53:44;;;;;;;18.10;12.43;;;;;;;4.91;81.63;97830.13;6125657;29;20688;-69
2021/11/22 13:56:49;;;;;;;19.90;12.83;;;;;;;4.88;81.25;97838.19;6125025;29;20192;-69
2021/11/22 13:59:54;;;;;;;17.97;12.73;;;;;;;4.81;81.56;97851.56;6125619;29;20214;-69
2021/11/22 14:03:00;;;;;;;17.40;11.87;;;;;;;4.79;81.92;97855.22;6124375;29;20556;-69
2021/11/22 14:06:03;;;;;;;19.90;13.33;;;;;;;4.75;82.22;97849.28;6125545;29;20211;-69
2021/11/22 14:09:06;;;;;;;18.67;12.27;;;;;;;4.72;82.73;97859.06;6125024;29;20246;-69
2021/11/22 14:12:08;;;;;;;17.93;12.00;;;;;;;4.72;82.37;97867.75;6138429;28;20214;-69
2021/11/22 14:15:20;;;;;;;20.17;12.83;;;;;;;4.70;83.53;97866.97;6125137;29;20199;-69
2021/11/22 14:18:23;;;;;;;17.47;10.93;;;;;;;4.70;83.03;97876.59;6123402;29;20579;-72
2021/11/22 14:21:35;;;;;;;18.17;12.73;;;;;;;4.67;83.65;97879.41;6123232;29;20679;-69
2021/11/22 14:24:52;;;;;;;21.43;13.20;;;;;;;4.64;84.24;97882.16;6125087;29;20575;-69